Time;durP1;ratioP1;P1;durP2;ratioP2;P2;SDS_P1;SDS_P2;PMS_P1;PMS_P2;Temp;Humidity;BMP_temperature;BMP_pressure;BME280_temperature;BME280_humidity;BME280_pressure;Samples;Min_cycle;Max_cycle;Signal;HPM_P1;HPM_P2
2022/12/29 00:00:19;;;;;;;1.17;1.10;;;6.80;84.80;6.00;95503.00;;;;5054135;28;20549;-58
2022/12/29 00:02:46;;;;;;;0.70;0.70;;;6.80;84.60;6.00;95497.00;;;;5053779;28;20658;-58
2022/12/29 00:05:13;;;;;;;0.93;0.93;;;6.90;84.70;6.10;95496.00;;;;5053776;28;20211;-58
2022/12/29 00:07:41;;;;;;;0.60;0.60;;;6.90;84.50;6.20;95479.00;;;;5053687;28;20216;-58
2022/12/29 00:10:09;;;;;;;0.70;0.70;;;7.00;84.20;6.20;95477.00;;;;5053711;28;20196;-58
2022/12/29 00:15:38;;;;;;;0.83;0.83;;;7.10;83.30;6.30;95467.00;;;;4997374;28;20322;-58
2022/12/29 00:18:05;;;;;;;0.67;0.67;;;7.10;82.80;6.40;95471.00;;;;5053908;28;20183;-58
2022/12/29 00:37:14;;;;;;;0.60;0.60;;;7.70;78.80;7.10;95467.00;;;;5053420;28;20216;-58
2022/12/29 00:45:12;;;;;;;0.60;0.60;;;8.00;75.70;7.30;95459.00;;;;5053117;28;20222;-56
2022/12/29 00:47:39;;;;;;;0.70;0.70;;;8.00;75.20;7.30;95444.00;;;;5053024;28;20220;-56
2022/12/29 00:50:05;;;;;;;0.60;0.60;;;8.10;75.10;7.40;95447.00;;;;5053325;28;20200;-56
2022/12/29 00:52:32;;;;;;;0.60;0.60;;;8.10;74.40;7.60;95459.00;;;;5053211;28;20687;-56
2022/12/29 00:55:01;;;;;;;0.67;0.67;;;8.30;73.50;8.00;95453.00;;;;5053212;28;20208;-57
2022/12/29 00:57:28;;;;;;;0.60;0.60;;;8.60;70.30;8.00;95449.00;;;;5052959;28;20656;-56
2022/12/29 00:59:55;;;;;;;0.60;0.60;;;;;8.40;95460.00;;;;5035161;28;20196;-56
2022/12/29 01:02:22;;;;;;;0.60;0.60;;;8.90;67.00;8.60;95458.00;;;;5053179;28;20532;-56
2022/12/29 01:04:49;;;;;;;0.60;0.60;;;;;8.50;95464.00;;;;5053168;28;20216;-57
2022/12/29 01:07:17;;;;;;;1.00;1.00;;;9.20;65.10;8.50;95469.00;;;;5053074;28;20617;-57
2022/12/29 01:12:41;;;;;;;0.60;0.60;;;9.30;64.80;9.00;95467.00;;;;5052980;28;20191;-57
2022/12/29 01:15:12;;;;;;;0.60;0.60;;;9.60;63.10;9.20;95466.00;;;;5053088;28;20544;-56
2022/12/29 01:17:39;;;;;;;0.50;0.50;;;9.80;62.00;9.30;95475.00;;;;5053137;28;20549;-56
2022/12/29 01:20:08;;;;;;;0.60;0.60;;;10.00;61.50;9.30;95472.00;;;;5052824;28;20188;-56
2022/12/29 01:22:35;;;;;;;0.60;0.60;;;10.00;60.70;9.40;95464.00;;;;5052757;28;20200;-56
2022/12/29 01:25:02;;;;;;;0.60;0.60;;;10.10;60.10;9.60;95471.00;;;;5034794;28;20273;-56
2022/12/29 01:27:30;;;;;;;0.70;0.70;;;10.20;59.10;9.70;95485.00;;;;5052670;28;20223;-56
2022/12/29 01:29:57;;;;;;;0.60;0.60;;;;;9.90;95478.00;;;;5052968;28;20185;-56
2022/12/29 01:32:24;;;;;;;0.60;0.60;;;10.40;56.90;9.80;95482.00;;;;5052899;28;20712;-56
2022/12/29 01:34:52;;;;;;;0.57;0.57;;;10.50;56.80;9.90;95481.00;;;;5054501;28;20212;-56
2022/12/29 01:37:18;;;;;;;0.70;0.70;;;10.70;55.40;10.10;95476.00;;;;5056866;28;20278;-56
2022/12/29 01:39:45;;;;;;;0.80;0.80;;;10.70;55.80;10.00;95484.00;;;;5056486;28;20246;-56
2022/12/29 01:42:18;;;;;;;0.60;0.60;;;10.70;55.20;10.10;95472.00;;;;5056516;28;20655;-56
2022/12/29 01:44:54;;;;;;;0.70;0.70;;;10.80;54.10;10.20;95482.00;;;;5056208;28;20267;-56
2022/12/29 01:47:34;;;;;;;0.60;0.60;;;10.80;54.90;10.30;95484.00;;;;5056323;28;20195;-56
2022/12/29 01:50:09;;;;;;;0.60;0.60;;;11.00;54.20;10.30;95476.00;;;;5056647;28;20195;-56
2022/12/29 01:52:43;;;;;;;1.23;0.60;;;10.90;54.80;10.20;95466.00;;;;5056384;28;20578;-56
2022/12/29 01:55:13;;;;;;;0.60;0.60;;;10.90;54.60;10.20;95468.00;;;;5056300;28;20614;-59
2022/12/29 01:57:46;;;;;;;1.17;1.10;;;10.90;54.70;10.10;95462.00;;;;5056265;28;20193;-57
2022/12/29 02:00:16;;;;;;;0.63;0.63;;;10.90;58.30;10.10;95466.00;;;;5056477;28;20604;-57
2022/12/29 02:02:48;;;;;;;0.57;0.57;;;10.70;55.00;9.90;95469.00;;;;5056121;28;20226;-57
2022/12/29 02:05:22;;;;;;;0.60;0.60;;;;;10.20;95463.00;;;;5056589;28;20219;-57
2022/12/29 02:07:51;;;;;;;0.73;0.73;;;10.90;53.40;10.20;95461.00;;;;5056247;28;20208;-57
2022/12/29 02:10:21;;;;;;;0.60;0.60;;;10.80;53.60;10.20;95458.00;;;;5056340;28;20196;-57
2022/12/29 02:12:48;;;;;;;0.60;0.60;;;10.90;53.30;10.20;95458.00;;;;5055893;28;20192;-57
2022/12/29 02:15:18;;;;;;;0.50;0.50;;;;;10.20;95448.00;;;;5037903;28;20215;-57
2022/12/29 02:18:15;;;;;;;1.47;1.37;;;10.90;53.40;10.10;95453.00;;;;5055802;28;20196;-57
2022/12/29 02:21:20;;;;;;;0.80;0.80;;;;;10.10;95465.00;;;;5056104;28;20238;-57
2022/12/29 02:24:32;;;;;;;1.00;1.00;;;10.70;93.60;10.00;95463.00;;;;5055968;28;20619;-57
2022/12/29 02:27:41;;;;;;;0.80;0.80;;;10.80;54.00;10.20;95463.00;;;;5015839;28;20259;-57
2022/12/29 02:30:31;;;;;;;0.60;0.60;;;10.90;53.50;10.20;95463.00;;;;5055902;28;20211;-57
2022/12/29 02:33:08;;;;;;;0.60;0.60;;;;;10.10;95449.00;;;;5038531;28;20181;-57
2022/12/29 02:35:45;;;;;;;0.60;0.60;;;10.80;53.70;10.00;95460.00;;;;5055847;28;20219;-57
2022/12/29 02:38:26;;;;;;;0.60;0.60;;;10.70;55.00;9.90;95444.00;;;;5055509;28;20234;-57
2022/12/29 02:41:03;;;;;;;0.60;0.60;;;10.60;55.10;9.90;95451.00;;;;5056005;28;20204;-57
2022/12/29 02:43:40;;;;;;;0.60;0.60;;;10.50;54.90;9.70;95459.00;;;;5055377;28;20180;-57
2022/12/29 02:46:20;;;;;;;0.63;0.63;;;10.60;54.40;9.90;95461.00;;;;5036059;28;20665;-57
2022/12/29 02:49:02;;;;;;;0.80;0.80;;;10.60;55.10;10.00;95445.00;;;;5055722;28;20200;-57
2022/12/29 02:51:40;;;;;;;0.70;0.70;;;10.70;54.90;10.20;95441.00;;;;5055491;28;20192;-57
2022/12/29 02:56:54;;;;;;;0.60;0.60;;;10.80;53.40;10.00;95427.00;;;;5012149;28;20203;-57
2022/12/29 02:59:22;;;;;;;0.70;0.70;;;10.70;54.10;9.90;95435.00;;;;5055353;28;20266;-56
2022/12/29 03:02:17;;;;;;;0.53;0.53;;;10.60;54.30;10.00;95447.00;;;;5055120;28;20189;-57
2022/12/29 03:05:04;;;;;;;0.70;0.70;;;10.80;53.30;10.20;95453.00;;;;5054873;28;20222;-57
2022/12/29 03:07:44;;;;;;;1.07;1.07;;;10.90;53.40;10.20;95439.00;;;;5054924;28;20180;-57
2022/12/29 03:10:26;;;;;;;0.50;0.50;;;10.80;53.00;10.30;95451.00;;;;5054788;28;20176;-58
2022/12/29 03:16:04;;;;;;;0.93;0.90;;;11.00;53.70;10.30;95433.00;;;;5054607;28;20520;-57
2022/12/29 03:18:47;;;;;;;0.73;0.73;;;10.90;52.80;10.20;95434.00;;;;5054693;28;20611;-56
2022/12/29 03:21:22;;;;;;;0.60;0.60;;;10.90;52.80;10.20;95412.00;;;;5055114;28;20173;-57
2022/12/29 03:23:50;;;;;;;0.60;0.60;;;10.90;53.70;10.30;95426.00;;;;5055102;28;20191;-57
2022/12/29 03:26:20;;;;;;;0.80;0.80;;;10.80;53.50;10.00;95415.00;;;;5036575;28;20479;-57
2022/12/29 03:28:52;;;;;;;0.70;0.70;;;10.70;53.70;10.00;95435.00;;;;5054425;28;20200;-57
2022/12/29 03:31:22;;;;;;;1.00;1.00;;;10.70;54.10;10.00;95431.00;;;;5054660;28;20187;-56
2022/12/29 03:33:53;;;;;;;0.50;0.50;;;10.70;54.10;10.00;95414.00;;;;5054259;28;20192;-56
2022/12/29 03:36:31;;;;;;;0.77;0.77;;;10.70;54.30;10.00;95414.00;;;;5054613;28;20199;-56
2022/12/29 03:39:06;;;;;;;0.50;0.50;;;10.70;54.30;9.90;95411.00;;;;5054347;28;20188;-57
2022/12/29 03:41:35;;;;;;;0.97;0.93;;;10.60;54.80;9.90;95413.00;;;;5054470;28;20222;-56
2022/12/29 03:44:02;;;;;;;0.60;0.60;;;10.60;55.00;9.90;95401.00;;;;5053983;28;20215;-57
2022/12/29 03:46:29;;;;;;;0.60;0.60;;;10.60;55.30;9.90;95404.00;;;;5054374;28;20199;-57
2022/12/29 03:48:57;;;;;;;0.67;0.67;;;10.60;55.50;9.80;95411.00;;;;5054332;28;20226;-57
2022/12/29 03:51:24;;;;;;;0.60;0.60;;;10.30;56.30;9.70;95417.00;;;;5054026;28;20728;-56
2022/12/29 03:53:51;;;;;;;1.27;1.27;;;10.40;56.90;9.70;95411.00;;;;5053908;28;20192;-57
2022/12/29 03:56:18;;;;;;;3.40;1.20;;;10.50;56.50;9.80;95417.00;;;;5053963;28;20188;-57
2022/12/29 03:58:46;;;;;;;0.73;0.73;;;;;9.70;95418.00;;;;5054079;28;20215;-57
2022/12/29 04:01:13;;;;;;;0.60;0.60;;;10.50;56.60;9.80;95414.00;;;;5053808;28;20200;-56
2022/12/29 04:03:40;;;;;;;0.70;0.70;;;10.40;57.00;9.70;95408.00;;;;5053885;28;20199;-58
2022/12/29 04:06:08;;;;;;;0.87;0.87;;;10.40;68.50;9.80;95405.00;;;;5054028;28;20651;-56
2022/12/29 04:08:35;;;;;;;0.73;0.73;;;10.40;57.10;9.70;95414.00;;;;5053815;28;20226;-56
2022/12/29 04:11:03;;;;;;;0.80;0.80;;;10.40;57.80;9.80;95420.00;;;;5053591;28;20674;-56
2022/12/29 04:13:30;;;;;;;0.50;0.50;;;;;9.70;95442.00;;;;5053843;28;20262;-57
2022/12/29 04:15:57;;;;;;;0.70;0.70;;;10.50;57.30;9.80;95433.00;;;;5053490;28;20734;-57
2022/12/29 04:18:24;;;;;;;1.07;1.00;;;10.50;57.30;9.90;95427.00;;;;5053520;28;20192;-57
2022/12/29 04:21:00;;;;;;;0.60;0.60;;;10.60;57.10;9.90;95432.00;;;;5053494;28;20195;-57
2022/12/29 04:23:30;;;;;;;0.60;0.60;;;;;9.90;95429.00;;;;5053795;28;20237;-56
2022/12/29 04:25:57;;;;;;;0.60;0.60;;;10.50;57.70;9.80;95420.00;;;;5053326;28;20216;-56
2022/12/29 04:28:24;;;;;;;0.93;0.93;;;10.50;58.00;9.80;95419.00;;;;5053565;28;20192;-56
2022/12/29 04:30:52;;;;;;;1.20;1.13;;;10.50;58.00;9.80;95417.00;;;;5053334;28;20192;-57
2022/12/29 04:33:19;;;;;;;0.60;0.60;;;10.50;58.10;9.90;95427.00;;;;5053575;28;20196;-56
2022/12/29 04:35:46;;;;;;;1.00;1.00;;;10.50;58.50;9.80;95410.00;;;;5053091;28;20223;-56
2022/12/29 04:38:14;;;;;;;0.53;0.53;;;;;9.70;95420.00;;;;5053198;28;20199;-56
2022/12/29 04:40:44;;;;;;;0.67;0.67;;;10.40;58.70;9.70;95407.00;;;;5053258;28;20250;-56
2022/12/29 04:43:11;;;;;;;1.60;0.90;;;10.40;59.10;9.70;95408.00;;;;5053153;28;20678;-56
2022/12/29 04:45:39;;;;;;;0.67;0.67;;;10.40;59.70;9.70;95422.00;;;;5052876;28;20223;-57
2022/12/29 04:48:06;;;;;;;0.97;0.93;;;10.30;59.30;9.80;95418.00;;;;5053094;28;20200;-56
2022/12/29 04:50:33;;;;;;;0.50;0.50;;;10.40;59.10;9.80;95415.00;;;;5052971;28;20220;-57
2022/12/29 04:53:01;;;;;;;0.53;0.53;;;10.60;73.20;9.70;95397.00;;;;5053268;28;20200;-57
2022/12/29 04:55:28;;;;;;;2.00;1.13;;;10.40;59.70;9.70;95401.00;;;;5053286;28;20219;-56
2022/12/29 04:57:56;;;;;;;0.57;0.57;;;10.40;59.90;9.70;95396.00;;;;5035138;28;20713;-57
2022/12/29 05:00:24;;;;;;;0.60;0.60;;;10.40;59.80;9.70;95414.00;;;;5052992;28;20192;-57
2022/12/29 05:02:51;;;;;;;0.67;0.67;;;10.40;60.10;9.70;95408.00;;;;5052904;28;20189;-56
2022/12/29 05:05:19;;;;;;;0.70;0.70;;;;;9.70;95399.00;;;;5052837;28;20307;-56
2022/12/29 05:07:46;;;;;;;0.60;0.60;;;10.30;60.60;9.60;95400.00;;;;5053141;28;20195;-56
2022/12/29 05:10:13;;;;;;;0.70;0.70;;;;;9.70;95411.00;;;;5055452;28;20212;-57
2022/12/29 05:12:41;;;;;;;0.70;0.70;;;10.40;60.40;9.80;95386.00;;;;5057032;28;20222;-56
2022/12/29 05:15:11;;;;;;;0.57;0.57;;;;;9.70;95418.00;;;;5057408;28;20215;-57
2022/12/29 05:17:38;;;;;;;0.57;0.57;;;10.40;60.60;9.70;95404.00;;;;5057489;28;20195;-56
2022/12/29 05:20:08;;;;;;;0.80;0.80;;;10.40;60.60;9.70;95409.00;;;;5056873;28;20196;-56
2022/12/29 05:22:35;;;;;;;0.60;0.60;;;10.40;60.70;9.70;95392.00;;;;5056972;28;20195;-56
2022/12/29 05:25:02;;;;;;;1.13;1.03;;;10.40;60.50;9.70;95400.00;;;;5056767;28;20212;-56
2022/12/29 05:27:29;;;;;;;1.00;1.00;;;10.40;60.50;9.70;95403.00;;;;5056764;28;20192;-57
2022/12/29 05:29:56;;;;;;;0.67;0.67;;;10.40;61.40;9.70;95408.00;;;;5056677;28;20223;-56
2022/12/29 05:32:24;;;;;;;0.70;0.70;;;10.30;60.70;9.70;95406.00;;;;5056946;28;20192;-56
2022/12/29 05:34:51;;;;;;;0.93;0.93;;;10.40;60.60;9.70;95414.00;;;;5056591;28;20208;-57
2022/12/29 05:37:19;;;;;;;2.13;1.10;;;;;9.70;95422.00;;;;5056644;28;20184;-57
2022/12/29 05:39:46;;;;;;;1.60;1.47;;;10.30;60.50;9.70;95395.00;;;;5056554;28;20211;-57
2022/12/29 05:42:13;;;;;;;0.70;0.70;;;10.50;59.90;9.80;95401.00;;;;5056615;28;20192;-57
2022/12/29 05:44:40;;;;;;;0.83;0.83;;;10.40;60.10;9.80;95398.00;;;;5056310;28;20216;-57
2022/12/29 05:47:07;;;;;;;1.03;1.03;;;10.50;60.00;9.90;95403.00;;;;5057042;28;20203;-57
2022/12/29 05:49:35;;;;;;;0.60;0.60;;;10.40;60.40;9.70;95415.00;;;;5056348;28;20242;-58
2022/12/29 05:52:02;;;;;;;5.97;1.10;;;10.40;60.40;9.70;95402.00;;;;5056407;28;20188;-57
2022/12/29 05:54:29;;;;;;;0.70;0.70;;;10.40;60.30;9.80;95393.00;;;;5056587;28;20216;-57
2022/12/29 05:56:56;;;;;;;0.60;0.60;;;10.40;60.30;9.80;95397.00;;;;5056257;28;20713;-57
2022/12/29 05:59:23;;;;;;;0.93;0.93;;;10.50;61.00;9.80;95398.00;;;;5056457;28;20192;-55
2022/12/29 06:01:50;;;;;;;0.60;0.60;;;10.50;59.70;9.80;95387.00;;;;5056120;28;20196;-56
2022/12/29 06:04:18;;;;;;;0.70;0.70;;;10.40;60.00;9.80;95390.00;;;;5056061;28;20208;-56
2022/12/29 06:06:46;;;;;;;0.60;0.60;;;10.50;61.60;9.70;95392.00;;;;5056268;28;20601;-55
2022/12/29 06:09:13;;;;;;;0.60;0.60;;;10.40;60.00;9.80;95406.00;;;;5056239;28;20223;-55
2022/12/29 06:11:40;;;;;;;0.60;0.60;;;10.40;60.70;9.90;95403.00;;;;5055803;28;20246;-58
2022/12/29 06:14:07;;;;;;;0.70;0.70;;;10.50;60.50;9.90;95411.00;;;;5055855;28;20211;-56
2022/12/29 06:16:34;;;;;;;0.87;0.87;;;10.50;59.30;9.80;95412.00;;;;5055812;28;20674;-55
2022/12/29 06:19:01;;;;;;;1.30;1.30;;;10.50;59.10;9.90;95407.00;;;;5055844;28;20192;-55
2022/12/29 06:21:28;;;;;;;0.60;0.60;;;10.50;59.30;9.90;95407.00;;;;5055435;28;20250;-55
2022/12/29 06:23:56;;;;;;;1.80;1.00;;;10.60;60.00;10.00;95415.00;;;;5038390;28;20227;-56
2022/12/29 06:26:23;;;;;;;1.27;0.70;;;10.60;58.80;9.90;95407.00;;;;5056127;28;20192;-56
2022/12/29 06:28:50;;;;;;;0.70;0.70;;;10.60;58.60;10.00;95409.00;;;;5037657;28;20635;-56
2022/12/29 06:31:17;;;;;;;1.37;1.37;;;10.60;58.30;9.90;95400.00;;;;5055584;28;20185;-57
2022/12/29 06:33:44;;;;;;;0.80;0.80;;;10.50;58.40;10.00;95394.00;;;;5055540;28;20193;-56
2022/12/29 06:36:11;;;;;;;0.80;0.80;;;10.70;57.50;10.00;95408.00;;;;5055485;28;20188;-56
2022/12/29 06:38:38;;;;;;;0.77;0.77;;;10.70;57.50;10.00;95417.00;;;;5055471;28;20193;-56
2022/12/29 06:41:07;;;;;;;0.87;0.87;;;10.70;57.30;10.00;95416.00;;;;5055656;28;20203;-57
2022/12/29 06:43:35;;;;;;;0.60;0.60;;;10.60;57.40;9.90;95399.00;;;;5055273;28;20192;-56
2022/12/29 06:46:02;;;;;;;0.60;0.60;;;10.60;57.70;9.80;95383.00;;;;5055245;28;20200;-57
2022/12/29 06:48:29;;;;;;;0.90;0.90;;;10.50;57.60;9.80;95399.00;;;;5055530;28;20196;-57
2022/12/29 06:50:56;;;;;;;0.60;0.60;;;10.50;76.40;9.80;95388.00;;;;5055082;28;20249;-57
2022/12/29 06:53:23;;;;;;;0.50;0.50;;;10.50;57.90;9.70;95385.00;;;;5055260;28;20192;-56
2022/12/29 06:55:50;;;;;;;2.43;0.90;;;10.40;58.00;9.70;95376.00;;;;5055047;28;20258;-57
2022/12/29 06:58:19;;;;;;;0.57;0.57;;;10.40;58.70;9.80;95382.00;;;;5055117;28;20192;-56
2022/12/29 07:00:46;;;;;;;0.70;0.70;;;10.40;57.40;9.80;95388.00;;;;5055055;28;20193;-56
2022/12/29 07:03:13;;;;;;;0.93;0.93;;;10.50;57.00;9.90;95380.00;;;;5055006;28;20192;-56
2022/12/29 07:05:40;;;;;;;0.77;0.77;;;10.50;57.10;9.70;95379.00;;;;5054888;28;20216;-57
2022/12/29 07:08:07;;;;;;;0.90;0.90;;;10.40;57.20;9.80;95372.00;;;;5054853;28;20246;-57
2022/12/29 07:10:34;;;;;;;1.67;1.40;;;10.50;57.80;9.80;95392.00;;;;5054815;28;20220;-57
2022/12/29 07:13:01;;;;;;;0.80;0.80;;;10.40;56.80;9.70;95394.00;;;;5054755;28;20531;-57
2022/12/29 07:15:29;;;;;;;0.90;0.90;;;10.30;57.20;9.60;95401.00;;;;5054684;28;20208;-57
2022/12/29 07:17:56;;;;;;;0.70;0.70;;;10.40;56.80;9.80;95397.00;;;;5054894;28;20188;-57
2022/12/29 07:20:23;;;;;;;0.50;0.50;;;10.40;56.70;9.80;95394.00;;;;5054688;28;20655;-56
2022/12/29 07:22:51;;;;;;;0.80;0.80;;;;;9.80;95397.00;;;;5054568;28;20191;-57
2022/12/29 07:25:18;;;;;;;1.00;1.00;;;10.50;56.50;9.80;95409.00;;;;5054438;28;20698;-57
2022/12/29 07:27:45;;;;;;;1.43;1.43;;;10.50;56.40;9.70;95406.00;;;;5054691;28;20203;-56
2022/12/29 07:30:13;;;;;;;0.60;0.60;;;10.40;57.20;9.80;95406.00;;;;5054954;28;20706;-57
2022/12/29 07:32:41;;;;;;;0.83;0.83;;;10.50;56.20;10.00;95408.00;;;;5053750;28;20200;-56
2022/12/29 07:35:09;;;;;;;0.60;0.60;;;10.60;55.90;9.80;95414.00;;;;5054651;28;20208;-56
2022/12/29 07:37:36;;;;;;;0.70;0.70;;;10.40;56.00;9.70;95409.00;;;;5055447;28;20204;-56
2022/12/29 07:40:04;;;;;;;0.60;0.60;;;10.50;56.80;9.80;95429.00;;;;5055125;28;20188;-57
2022/12/29 07:42:32;;;;;;;0.67;0.67;;;10.50;55.60;9.90;95421.00;;;;5054593;28;20196;-56
2022/12/29 07:44:59;;;;;;;0.60;0.60;;;10.50;56.20;10.10;95403.00;;;;5054298;28;20691;-56
2022/12/29 07:47:26;;;;;;;0.90;0.90;;;10.80;53.80;10.20;95400.00;;;;5054182;28;20191;-56
2022/12/29 07:49:55;;;;;;;0.67;0.67;;;10.80;53.70;10.20;95408.00;;;;5054263;28;20216;-56
2022/12/29 07:52:22;;;;;;;16.67;1.30;;;10.90;54.30;10.20;95412.00;;;;5054042;28;20600;-56
2022/12/29 07:54:49;;;;;;;0.73;0.73;;;10.90;53.70;10.30;95392.00;;;;5054292;28;20215;-57
2022/12/29 07:57:16;;;;;;;0.70;0.70;;;11.00;52.60;10.40;95373.00;;;;5054199;28;20196;-57
2022/12/29 07:59:44;;;;;;;0.73;0.73;;;11.00;52.00;10.40;95418.00;;;;5036104;28;20620;-56
2022/12/29 08:02:12;;;;;;;0.70;0.70;;;11.00;51.90;10.40;95422.00;;;;5053918;28;20216;-56
2022/12/29 08:04:39;;;;;;;1.07;1.07;;;11.10;52.00;10.50;95420.00;;;;5054250;28;20254;-56
2022/12/29 08:07:07;;;;;;;0.70;0.70;;;11.10;51.60;10.60;95425.00;;;;5054121;28;20549;-56
2022/12/29 08:09:35;;;;;;;0.60;0.60;;;11.20;52.40;10.60;95427.00;;;;5053670;28;20683;-56
2022/12/29 08:12:02;;;;;;;0.60;0.60;;;11.20;51.70;10.50;95446.00;;;;5054020;28;20609;-57
2022/12/29 08:14:29;;;;;;;0.70;0.70;;;11.20;51.40;10.50;95440.00;;;;5053800;28;20547;-56
2022/12/29 08:16:56;;;;;;;0.80;0.80;;;11.20;52.10;10.60;95433.00;;;;5054065;28;20220;-56
2022/12/29 08:19:23;;;;;;;1.00;1.00;;;11.20;52.60;10.60;95434.00;;;;5053547;28;20192;-56
2022/12/29 08:21:51;;;;;;;0.70;0.70;;;11.20;51.50;10.50;95448.00;;;;5053601;28;20188;-56
2022/12/29 08:24:19;;;;;;;0.97;0.97;;;11.30;51.10;10.60;95444.00;;;;5053641;28;20300;-56
2022/12/29 08:26:46;;;;;;;0.73;0.73;;;11.30;50.80;10.70;95422.00;;;;5053706;28;20196;-57
2022/12/29 08:29:13;;;;;;;0.70;0.70;;;11.30;51.00;10.70;95423.00;;;;5053593;28;20192;-57
2022/12/29 08:31:40;;;;;;;1.27;1.23;;;11.40;51.80;10.70;95434.00;;;;5053291;28;20216;-56
2022/12/29 08:34:07;;;;;;;0.57;0.57;;;11.40;50.80;10.70;95449.00;;;;5053730;28;20282;-56
2022/12/29 08:36:34;;;;;;;0.77;0.77;;;11.40;51.40;10.80;95434.00;;;;5053331;28;20242;-56
2022/12/29 08:39:01;;;;;;;0.70;0.70;;;11.40;51.00;10.80;95443.00;;;;5053273;28;20188;-56
2022/12/29 08:41:29;;;;;;;0.90;0.90;;;11.40;51.30;10.80;95437.00;;;;5053222;28;20204;-56
2022/12/29 08:43:57;;;;;;;0.50;0.50;;;11.40;51.50;10.80;95437.00;;;;5035082;28;20730;-56
2022/12/29 08:46:24;;;;;;;1.70;0.97;;;11.50;50.60;10.80;95439.00;;;;5053220;28;20180;-57
2022/12/29 08:48:51;;;;;;;0.70;0.70;;;11.50;50.60;10.90;95441.00;;;;5053213;28;20198;-59
2022/12/29 08:51:19;;;;;;;0.80;0.80;;;;;10.80;95434.00;;;;5053330;28;20242;-58
2022/12/29 08:53:46;;;;;;;0.73;0.73;;;11.50;51.00;10.80;95440.00;;;;5053297;28;20195;-57
2022/12/29 08:56:13;;;;;;;0.97;0.97;;;11.50;50.80;10.90;95458.00;;;;5053122;28;20184;-57
2022/12/29 08:58:41;;;;;;;0.80;0.80;;;12.20;51.10;10.90;95454.00;;;;5053059;28;20207;-58
2022/12/29 09:01:11;;;;;;;0.70;0.70;;;11.60;50.10;11.00;95447.00;;;;5053286;28;20200;-57
2022/12/29 09:03:38;;;;;;;0.60;0.60;;;11.60;51.20;11.20;95450.00;;;;5035031;28;20196;-58
2022/12/29 09:06:05;;;;;;;0.73;0.73;;;11.80;50.90;11.20;95464.00;;;;5053190;28;20184;-57
2022/12/29 09:08:33;;;;;;;1.87;1.77;;;;;11.10;95445.00;;;;5053195;28;20195;-58
2022/12/29 09:11:08;;;;;;;0.60;0.60;;;11.80;49.60;11.10;95462.00;;;;5053112;28;20219;-57
2022/12/29 09:13:36;;;;;;;3.80;1.00;;;11.70;50.20;11.20;95465.00;;;;5053139;28;20179;-57
2022/12/29 09:16:05;;;;;;;0.60;0.60;;;11.80;50.50;11.20;95484.00;;;;5053145;28;20195;-58
2022/12/29 09:18:33;;;;;;;0.60;0.60;;;11.80;50.40;11.30;95469.00;;;;5052891;28;20254;-57
2022/12/29 09:21:02;;;;;;;1.53;1.43;;;11.90;50.70;11.20;95464.00;;;;5052912;28;20203;-57
2022/12/29 09:23:30;;;;;;;0.60;0.60;;;;;11.30;95460.00;;;;5052795;28;20195;-57
2022/12/29 09:25:58;;;;;;;0.70;0.70;;;;;11.30;95479.00;;;;5052706;28;20216;-57
2022/12/29 09:28:25;;;;;;;0.60;0.60;;;;;11.40;95478.00;;;;5053066;28;20647;-57
2022/12/29 09:30:53;;;;;;;0.83;0.77;;;;;11.50;95472.00;;;;5052737;28;20219;-57
2022/12/29 09:33:22;;;;;;;0.80;0.80;;;;;11.50;95503.00;;;;5052753;28;20677;-57
2022/12/29 09:35:53;;;;;;;0.83;0.83;;;;;11.30;95515.00;;;;5052600;28;20208;-57
2022/12/29 09:38:21;;;;;;;2.47;1.10;;;;;11.30;95481.00;;;;5052748;28;20184;-57
2022/12/29 09:40:54;;;;;;;0.50;0.50;;;;;11.30;95474.00;;;;5034781;28;20192;-57
2022/12/29 09:43:44;;;;;;;0.70;0.70;;;;;11.50;95474.00;;;;5053245;28;20669;-58
2022/12/29 09:46:20;;;;;;;0.50;0.50;;;;;11.70;95465.00;;;;5052843;28;20185;-57
2022/12/29 09:48:53;;;;;;;0.60;0.60;;;;;11.60;95486.00;;;;5053196;28;20190;-57
2022/12/29 09:51:24;;;;;;;0.70;0.70;;;;;11.50;95479.00;;;;5053101;28;20200;-58
2022/12/29 09:53:56;;;;;;;0.87;0.87;;;;;11.60;95481.00;;;;5052442;28;20250;-58
2022/12/29 09:56:26;;;;;;;0.70;0.70;;;;;11.80;95472.00;;;;5055368;28;20184;-58
2022/12/29 09:58:56;;;;;;;0.63;0.63;;;;;11.50;95485.00;;;;5056588;28;20196;-57
2022/12/29 10:01:31;;;;;;;0.63;0.63;;;;;11.80;95495.00;;;;5056538;28;20176;-57
2022/12/29 10:04:04;;;;;;;0.70;0.70;;;;;11.80;95473.00;;;;5056414;28;20709;-57
2022/12/29 10:06:40;;;;;;;0.50;0.50;;;;;11.80;95476.00;;;;5056391;28;20187;-58
2022/12/29 10:09:16;;;;;;;4.13;1.30;;;;;11.70;95482.00;;;;5056088;28;20683;-57
2022/12/29 10:12:02;;;;;;;1.07;1.07;;;;;11.80;95480.00;;;;5056208;28;20257;-57
2022/12/29 10:14:48;;;;;;;0.63;0.63;;;;;11.70;95489.00;;;;5055902;28;20687;-58
2022/12/29 10:17:26;;;;;;;0.80;0.80;;;;;11.50;95467.00;;;;5055933;28;20177;-58
2022/12/29 10:20:11;;;;;;;0.60;0.60;;;;;11.50;95478.00;;;;5056457;28;20184;-58
2022/12/29 10:22:54;;;;;;;0.50;0.50;;;;;11.80;95485.00;;;;5056072;28;20258;-58
2022/12/29 10:25:24;;;;;;;0.50;0.50;;;;;11.70;95486.00;;;;5055909;28;20238;-57
2022/12/29 10:27:54;;;;;;;0.67;0.67;;;;;11.90;95494.00;;;;5055951;28;20246;-59
2022/12/29 10:30:22;;;;;;;0.70;0.70;;;;;11.70;95492.00;;;;5055853;28;20639;-58
2022/12/29 10:32:53;;;;;;;0.60;0.60;;;;;11.90;95489.00;;;;5055613;28;20199;-57
2022/12/29 10:35:26;;;;;;;0.60;0.60;;;;;11.80;95488.00;;;;5055590;28;20219;-56
2022/12/29 10:38:01;;;;;;;0.50;0.50;;;12.50;50.00;12.00;95494.00;;;;5055784;28;20196;-56
2022/12/29 10:40:33;;;;;;;0.70;0.70;;;;;12.20;95482.00;;;;5055793;28;20616;-56
2022/12/29 10:43:02;;;;;;;0.60;0.60;;;;;12.40;95461.00;;;;5055743;28;20191;-60
2022/12/29 10:45:32;;;;;;;0.70;0.70;;;;;12.40;95464.00;;;;5055236;28;20797;-56
2022/12/29 10:48:04;;;;;;;0.57;0.57;;;;;12.40;95488.00;;;;5055300;28;20192;-56
2022/12/29 10:50:34;;;;;;;0.67;0.67;;;;;12.10;95471.00;;;;5055526;28;20200;-56
2022/12/29 10:53:05;;;;;;;0.60;0.60;;;;;11.90;95467.00;;;;5055760;28;20659;-57
2022/12/29 10:55:36;;;;;;;0.67;0.67;;;;;11.70;95499.00;;;;5055342;28;20624;-56
2022/12/29 10:58:06;;;;;;;0.60;0.60;;;;;11.80;95499.00;;;;5055728;28;20189;-56
2022/12/29 11:00:35;;;;;;;1.20;1.10;;;;;11.70;95488.00;;;;5038174;28;20243;-56
2022/12/29 11:04:00;;;;;;;0.60;0.60;;;12.30;49.90;11.70;95489.00;;;;5055024;28;20246;-56
2022/12/29 11:06:30;;;;;;;0.57;0.57;;;;;11.60;95484.00;;;;5053415;28;20204;-56
2022/12/29 11:09:00;;;;;;;0.83;0.83;;;;;11.60;95487.00;;;;5055504;28;20632;-58
2022/12/29 11:11:33;;;;;;;0.70;0.70;;;;;11.60;95489.00;;;;5055202;28;20262;-56
2022/12/29 11:14:12;;;;;;;0.73;0.73;;;;;11.60;95490.00;;;;5055025;28;20219;-57
2022/12/29 11:16:41;;;;;;;0.90;0.90;;;;;11.50;95501.00;;;;5054862;28;20219;-56
2022/12/29 11:19:23;;;;;;;0.70;0.70;;;12.20;48.40;11.60;95486.00;;;;5054873;28;20271;-56
2022/12/29 11:21:52;;;;;;;0.67;0.67;;;;;11.50;95497.00;;;;5054908;28;20177;-56
2022/12/29 11:24:23;;;;;;;0.60;0.60;;;;;11.50;95516.00;;;;5054860;28;20212;-56
2022/12/29 11:26:52;;;;;;;12.83;1.20;;;;;11.30;95501.00;;;;5054990;28;20180;-56
2022/12/29 11:29:26;;;;;;;0.63;0.63;;;;;11.20;95519.00;;;;5054836;28;20230;-56
2022/12/29 11:31:55;;;;;;;0.77;0.77;;;;;10.90;95510.00;;;;5054537;28;20681;-56
2022/12/29 11:34:25;;;;;;;0.73;0.73;;;;;10.80;95514.00;;;;5054401;28;20216;-56
2022/12/29 11:36:59;;;;;;;0.60;0.60;;;;;10.60;95514.00;;;;5054687;28;20207;-56
2022/12/29 11:39:35;;;;;;;1.07;1.07;;;;;10.40;95507.00;;;;5054942;28;20238;-56
2022/12/29 11:42:04;;;;;;;2.13;1.10;;;;;10.50;95518.00;;;;5054359;28;20241;-56
2022/12/29 11:44:38;;;;;;;0.70;0.70;;;;;10.50;95509.00;;;;5054265;28;20257;-56
2022/12/29 11:47:09;;;;;;;0.70;0.70;;;;;10.60;95510.00;;;;5054318;28;20260;-56
2022/12/29 11:49:36;;;;;;;0.73;0.73;;;;;10.60;95513.00;;;;5054169;28;20181;-56
2022/12/29 11:52:07;;;;;;;0.60;0.60;;;;;10.50;95495.00;;;;5054045;28;20687;-56
2022/12/29 11:54:38;;;;;;;1.37;1.27;;;;;10.70;95493.00;;;;5054034;28;20219;-56
2022/12/29 11:57:13;;;;;;;0.60;0.60;;;;;10.80;95481.00;;;;5054024;28;20184;-56
2022/12/29 11:59:49;;;;;;;0.73;0.73;;;;;10.70;95487.00;;;;5054440;28;20263;-57
2022/12/29 12:02:41;;;;;;;1.37;0.90;;;;;10.80;95494.00;;;;5053846;28;20172;-56
2022/12/29 12:05:15;;;;;;;0.60;0.60;;;;;11.00;95481.00;;;;5036035;28;20220;-56
2022/12/29 12:07:46;;;;;;;0.90;0.90;;;;;11.00;95489.00;;;;5054093;28;20218;-56
2022/12/29 12:10:22;;;;;;;0.50;0.50;;;;;10.90;95482.00;;;;5053759;28;20180;-56